East Three Airport


Codes: FLEC/
Name: East Three Airport
City: Luano
Country: Zambia
Elevation: 2300 ft.

Photos at East Three Airport


   Photos courtesy of SpottingLog. You can add your own sightings and photos by signing up for a free trial today.



No photos found.

Weather at East Three Airport


Time (UTC)DescriptionTempratureWindCloud coverageVisibilityPressureHumidity
15-Apr-2024 18:00Overcast Clouds24°C2 mph, NE88%10000m1016hPa68%
15-Apr-2024 21:00Overcast Clouds24°C2 mph, E91%10000m1017hPa70%
16-Apr-2024 00:00Broken Clouds22°C0 mph, SE82%10000m1017hPa78%
16-Apr-2024 03:00Few Clouds19°C2 mph, SE20%10000m1018hPa86%
16-Apr-2024 06:00Scattered Clouds23°C2 mph, SE26%10000m1020hPa70%
16-Apr-2024 09:00Scattered Clouds26°C7 mph, SE43%10000m1018hPa58%
16-Apr-2024 12:00Broken Clouds28°C2 mph, E62%10000m1015hPa52%
16-Apr-2024 15:00Scattered Clouds27°C2 mph, N45%10000m1014hPa58%
16-Apr-2024 18:00Scattered Clouds23°C2 mph, N44%10000m1016hPa69%
16-Apr-2024 21:00Broken Clouds22°C2 mph, SE83%10000m1017hPa72%
17-Apr-2024 00:00Scattered Clouds20°C0 mph, SE46%10000m1016hPa83%
17-Apr-2024 03:00Clear Sky18°C0 mph, S1%10000m1018hPa87%
17-Apr-2024 06:00Clear Sky22°C2 mph, SE2%10000m1019hPa71%
17-Apr-2024 09:00Clear Sky28°C4 mph, E5%10000m1018hPa53%
17-Apr-2024 12:00Few Clouds30°C4 mph, NE15%10000m1014hPa45%
17-Apr-2024 15:00Broken Clouds28°C4 mph, E56%10000m1013hPa55%
17-Apr-2024 18:00Broken Clouds25°C2 mph, N77%10000m1016hPa61%
17-Apr-2024 21:00Overcast Clouds25°C2 mph, NE100%10000m1017hPa64%
18-Apr-2024 00:00Overcast Clouds23°C0 mph, NE91%10000m1016hPa73%
18-Apr-2024 03:00Overcast Clouds22°C0 mph, NE98%10000m1017hPa77%
18-Apr-2024 06:00Overcast Clouds24°C2 mph, SE99%10000m1019hPa69%
18-Apr-2024 09:00Overcast Clouds28°C4 mph, E97%10000m1018hPa56%
18-Apr-2024 12:00Overcast Clouds29°C2 mph, SE97%10000m1015hPa54%
18-Apr-2024 15:00Overcast Clouds27°C4 mph, S100%10000m1015hPa66%
18-Apr-2024 18:00Overcast Clouds25°C2 mph, SW98%10000m1017hPa70%
18-Apr-2024 21:00Overcast Clouds23°C2 mph, N100%10000m1017hPa75%
19-Apr-2024 00:00Overcast Clouds21°C0 mph, NE98%10000m1015hPa84%
19-Apr-2024 03:00Scattered Clouds20°C0 mph, N46%10000m1016hPa91%
19-Apr-2024 06:00Broken Clouds24°C2 mph, S64%10000m1017hPa74%
19-Apr-2024 09:00Broken Clouds30°C7 mph, SE52%10000m1015hPa52%
19-Apr-2024 12:00Broken Clouds32°C7 mph, E69%10000m1012hPa42%
19-Apr-2024 15:00Overcast Clouds27°C2 mph, SE100%10000m1012hPa58%
19-Apr-2024 18:00Overcast Clouds26°C0 mph, NE99%10000m1013hPa62%
19-Apr-2024 21:00Light Rain22°C2 mph, N32%10000m1014hPa80%
20-Apr-2024 00:00Few Clouds21°C0 mph, NE19%10000m1013hPa90%
20-Apr-2024 03:00Clear Sky20°C0 mph, SW2%10000m1014hPa93%
20-Apr-2024 06:00Scattered Clouds24°C2 mph, SE32%10000m1016hPa78%
20-Apr-2024 09:00Overcast Clouds29°C7 mph, SE90%10000m1015hPa54%
20-Apr-2024 12:00Overcast Clouds33°C2 mph, E85%10000m1010hPa38%
20-Apr-2024 15:00Overcast Clouds29°C2 mph, NE100%10000m1010hPa54%